Terminal Aerodrome Forecast
Issued by NWS

Home | Current Version | Previous Version | Text Only | Print | Product List | Glossary On
Versions: 1 2 3 4 5 6 7 8 9 10 11 12 13 14 15
000
FTUS45 KRIW 230537
TAFBPI
TAF
KBPI 230537Z 2306/2406 VRB06KT 2SM -SN SCT007 OVC015
      TEMPO 2306/2310 1SM -SN VV007
     FM231500 17006KT 2SM -SN SCT012 OVC025
     FM240000 VRB05KT 4SM -SN OVC025=

USA.gov is the U.S. government's official web portal to all federal, state and local government web resources and services.